createdAt,value
2023-03-21T00:02:05.070Z,28.40
2023-03-21T00:04:50.956Z,28.30
2023-03-21T00:07:24.476Z,25.20
2023-03-21T00:10:04.965Z,25.70
2023-03-21T00:12:45.536Z,26.00
2023-03-21T00:15:20.569Z,29.40
2023-03-21T00:17:54.424Z,25.60
2023-03-21T00:20:35.339Z,21.50
2023-03-21T00:23:07.491Z,23.70
2023-03-21T00:25:41.221Z,22.30
2023-03-21T00:28:11.166Z,22.90
2023-03-21T00:30:44.023Z,23.40
2023-03-21T00:36:05.132Z,24.70
2023-03-21T00:38:41.098Z,22.40
2023-03-21T00:41:35.129Z,23.60
2023-03-21T00:44:26.829Z,21.90
2023-03-21T00:47:07.005Z,24.50
2023-03-21T00:49:44.977Z,24.10
2023-03-21T00:52:20.391Z,22.90
2023-03-21T00:54:56.409Z,22.50
2023-03-21T00:57:37.909Z,20.70
2023-03-21T01:00:12.590Z,19.40
2023-03-21T01:03:14.247Z,22.20
2023-03-21T01:06:04.861Z,19.30
2023-03-21T01:08:51.771Z,20.80
2023-03-21T01:11:24.826Z,21.00
2023-03-21T01:16:51.395Z,24.00
2023-03-21T01:19:35.237Z,26.70
2023-03-21T01:22:20.293Z,23.90
2023-03-21T01:24:58.634Z,23.00
2023-03-21T01:27:35.342Z,24.90
2023-03-21T01:30:11.281Z,27.10
2023-03-21T01:32:47.618Z,23.60
2023-03-21T01:35:16.921Z,27.30
2023-03-21T01:37:49.440Z,19.50
2023-03-21T01:40:23.087Z,21.70
2023-03-21T01:42:54.788Z,29.20
2023-03-21T01:46:03.314Z,23.80
2023-03-21T01:49:16.625Z,27.90
2023-03-21T01:51:56.663Z,32.50
2023-03-21T01:54:31.788Z,22.50
2023-03-21T01:57:05.669Z,25.60
2023-03-21T01:59:43.857Z,27.00
2023-03-21T02:02:58.303Z,25.30
2023-03-21T02:06:02.600Z,27.30
2023-03-21T02:09:04.923Z,31.10
2023-03-21T02:11:34.865Z,27.80
2023-03-21T02:14:07.020Z,26.10
2023-03-21T02:16:58.061Z,28.60
2023-03-21T02:19:53.308Z,32.20
2023-03-21T02:23:00.648Z,28.00
2023-03-21T02:26:10.195Z,28.20
2023-03-21T02:28:56.596Z,28.80
2023-03-21T02:32:16.539Z,28.50
2023-03-21T02:35:52.352Z,27.30
2023-03-21T02:38:28.512Z,29.00
2023-03-21T02:41:19.110Z,32.50
2023-03-21T02:43:59.049Z,31.60
2023-03-21T02:46:45.436Z,31.30
2023-03-21T02:49:43.247Z,32.20
2023-03-21T02:52:32.113Z,34.60
2023-03-21T02:55:32.960Z,34.10
2023-03-21T02:58:13.379Z,29.30
2023-03-21T03:00:57.927Z,29.10
2023-03-21T03:03:37.171Z,29.90
2023-03-21T03:06:15.083Z,33.20
2023-03-21T03:09:02.648Z,35.10
2023-03-21T03:11:39.936Z,30.70
2023-03-21T03:14:44.353Z,36.50
2023-03-21T03:17:28.438Z,31.60
2023-03-21T03:20:32.704Z,31.90
2023-03-21T03:23:26.252Z,26.10
2023-03-21T03:26:08.914Z,30.50
2023-03-21T03:28:59.099Z,30.10
2023-03-21T03:31:36.886Z,32.30
2023-03-21T03:34:11.026Z,28.60
2023-03-21T03:36:43.901Z,30.00
2023-03-21T03:39:16.777Z,38.90
2023-03-21T03:42:27.710Z,36.30
2023-03-21T03:45:06.738Z,33.90
2023-03-21T03:47:54.164Z,27.20
2023-03-21T03:50:33.581Z,33.70
2023-03-21T03:53:18.589Z,32.90
2023-03-21T03:55:56.639Z,32.80
2023-03-21T03:58:33.572Z,31.40
2023-03-21T04:01:08.117Z,33.50
2023-03-21T04:03:49.763Z,33.60
2023-03-21T04:06:22.335Z,35.50
2023-03-21T04:08:53.487Z,35.30
2023-03-21T04:11:26.284Z,37.40
2023-03-21T04:13:56.660Z,30.40
2023-03-21T04:16:28.541Z,33.80
2023-03-21T04:18:59.027Z,34.30
2023-03-21T04:21:29.485Z,36.00
2023-03-21T04:24:09.180Z,36.60
2023-03-21T04:26:41.952Z,42.20
2023-03-21T04:29:31.232Z,44.80
2023-03-21T04:32:25.642Z,40.80
2023-03-21T04:35:09.129Z,42.70
2023-03-21T04:37:47.908Z,31.40
2023-03-21T04:40:20.797Z,33.60
2023-03-21T04:42:55.349Z,33.40
2023-03-21T04:45:24.560Z,31.30
2023-03-21T04:48:02.232Z,27.60
2023-03-21T04:50:38.075Z,30.40
2023-03-21T04:53:10.661Z,38.30
2023-03-21T04:55:46.794Z,33.40
2023-03-21T04:58:22.133Z,37.00
2023-03-21T05:00:53.286Z,32.20
2023-03-21T05:03:34.636Z,32.10
2023-03-21T05:06:19.387Z,35.80
2023-03-21T05:09:07.957Z,37.10
2023-03-21T05:12:03.483Z,35.40
2023-03-21T05:14:36.097Z,36.20
2023-03-21T05:17:15.553Z,32.00
2023-03-21T05:19:50.655Z,34.30
2023-03-21T05:22:21.402Z,32.00
2023-03-21T05:24:59.003Z,28.90
2023-03-21T05:27:45.486Z,28.50
2023-03-21T05:30:21.008Z,28.70
2023-03-21T05:33:43.200Z,34.70
2023-03-21T05:36:15.990Z,26.50
2023-03-21T05:38:48.940Z,35.30
2023-03-21T05:41:21.033Z,32.80
2023-03-21T05:43:50.989Z,33.90
2023-03-21T05:46:22.170Z,39.10
2023-03-21T05:48:52.511Z,48.60
2023-03-21T05:51:25.536Z,48.30
2023-03-21T05:54:20.262Z,49.30
2023-03-21T05:56:49.297Z,44.20
2023-03-21T05:59:51.880Z,36.20
2023-03-21T06:02:24.688Z,40.70
2023-03-21T06:04:54.811Z,40.00
2023-03-21T06:07:28.724Z,33.90
2023-03-21T06:09:57.601Z,30.60
2023-03-21T06:12:30.584Z,32.70
2023-03-21T06:15:08.712Z,37.00
2023-03-21T06:17:54.483Z,37.40
2023-03-21T06:20:28.204Z,31.50
2023-03-21T06:23:08.660Z,30.00
2023-03-21T06:25:39.358Z,35.00
2023-03-21T06:28:35.079Z,38.30
2023-03-21T06:31:10.585Z,35.40
2023-03-21T06:34:10.658Z,37.00
2023-03-21T06:36:48.187Z,31.00
2023-03-21T06:39:18.894Z,36.10
2023-03-21T06:41:47.948Z,30.40
2023-03-21T06:44:26.410Z,35.10
2023-03-21T06:47:06.278Z,33.00
2023-03-21T06:49:38.273Z,30.10
2023-03-21T06:52:11.830Z,27.00
2023-03-21T06:54:43.644Z,30.50
2023-03-21T06:57:22.359Z,30.50
2023-03-21T06:59:52.734Z,35.70
2023-03-21T07:02:27.578Z,31.50
2023-03-21T07:05:09.654Z,30.90
2023-03-21T07:07:39.357Z,31.10
2023-03-21T07:10:14.411Z,35.00
2023-03-21T07:13:04.883Z,33.80
2023-03-21T07:15:39.292Z,33.60
2023-03-21T07:18:10.756Z,36.30
2023-03-21T07:20:47.960Z,30.60
2023-03-21T07:24:14.588Z,31.60
2023-03-21T07:26:56.492Z,32.70
2023-03-21T07:29:49.992Z,29.40
2023-03-21T07:32:18.476Z,34.70
2023-03-21T07:34:51.055Z,28.40
2023-03-21T07:37:23.527Z,32.20
2023-03-21T07:39:58.726Z,33.90
2023-03-21T07:42:29.821Z,32.80
2023-03-21T07:45:04.838Z,28.80
2023-03-21T07:47:40.490Z,30.30
2023-03-21T07:50:11.741Z,34.30
2023-03-21T07:52:42.034Z,34.30
2023-03-21T07:55:12.299Z,29.50
2023-03-21T07:57:46.863Z,29.80
2023-03-21T08:00:23.808Z,32.10
2023-03-21T08:02:58.752Z,29.20
2023-03-21T08:05:44.451Z,31.70
2023-03-21T08:08:14.281Z,30.00
2023-03-21T08:10:45.206Z,25.80
2023-03-21T08:13:15.745Z,28.00
2023-03-21T08:15:45.859Z,28.70
2023-03-21T08:18:15.633Z,23.80
2023-03-21T08:20:44.953Z,27.90
2023-03-21T08:23:21.177Z,26.90
2023-03-21T08:25:54.603Z,31.60
2023-03-21T08:28:26.679Z,25.90
2023-03-21T08:31:09.216Z,30.00
2023-03-21T08:33:40.939Z,30.30
2023-03-21T08:36:12.095Z,30.60
2023-03-21T08:38:41.783Z,29.70
2023-03-21T08:41:13.109Z,25.80
2023-03-21T08:43:57.693Z,25.10
2023-03-21T08:46:34.040Z,29.40
2023-03-21T08:49:04.199Z,26.80
2023-03-21T08:51:35.506Z,32.00
2023-03-21T08:54:06.941Z,26.80
2023-03-21T08:56:38.228Z,24.50
2023-03-21T08:59:06.540Z,27.60
2023-03-21T09:01:40.877Z,27.30
2023-03-21T09:04:13.512Z,31.30
2023-03-21T09:06:45.275Z,25.40
2023-03-21T09:09:13.363Z,24.80
2023-03-21T09:11:45.815Z,26.00
2023-03-21T09:14:16.152Z,22.80
2023-03-21T09:16:44.990Z,22.90
2023-03-21T09:19:16.893Z,23.80
2023-03-21T09:21:47.010Z,26.30
2023-03-21T09:24:17.628Z,25.10
2023-03-21T09:26:53.214Z,22.30
2023-03-21T09:29:21.362Z,22.70
2023-03-21T09:32:18.606Z,24.30
2023-03-21T09:34:48.656Z,20.20
2023-03-21T09:37:17.243Z,20.90
2023-03-21T09:39:47.615Z,20.60
2023-03-21T09:42:56.565Z,21.80
2023-03-21T09:45:49.423Z,22.60
2023-03-21T09:49:18.513Z,22.90
2023-03-21T09:51:50.092Z,20.30
2023-03-21T09:57:41.362Z,20.20
2023-03-21T10:00:46.722Z,21.80
2023-03-21T10:03:29.217Z,24.70
2023-03-21T10:05:58.348Z,32.00
2023-03-21T10:08:30.168Z,38.20
2023-03-21T10:11:04.602Z,42.00
2023-03-21T10:13:37.498Z,41.10
2023-03-21T10:16:19.580Z,38.70
2023-03-21T10:18:47.623Z,38.00
2023-03-21T10:21:47.477Z,40.40
2023-03-21T10:24:13.363Z,33.40
2023-03-21T10:26:40.996Z,38.90
2023-03-21T10:29:16.498Z,39.50
2023-03-21T10:31:45.421Z,34.40
2023-03-21T10:34:27.061Z,37.10
2023-03-21T10:36:59.463Z,33.10
2023-03-21T10:39:38.833Z,40.30
2023-03-21T10:42:28.938Z,40.30
2023-03-21T10:44:57.393Z,42.80
2023-03-21T10:47:28.283Z,32.90
2023-03-21T10:50:11.878Z,34.20
2023-03-21T10:52:53.271Z,38.20
2023-03-21T10:55:32.786Z,37.60
2023-03-21T10:58:10.199Z,36.70
2023-03-21T11:00:41.639Z,31.90
2023-03-21T11:03:30.781Z,33.90
2023-03-21T11:06:05.682Z,33.60
2023-03-21T11:08:38.901Z,31.30
2023-03-21T11:11:15.274Z,29.10
2023-03-21T11:13:44.899Z,32.60
2023-03-21T11:16:26.660Z,27.50
2023-03-21T11:21:29.689Z,29.60
2023-03-21T11:23:58.798Z,26.30
2023-03-21T11:26:37.949Z,31.40
2023-03-21T11:30:10.346Z,31.50
2023-03-21T11:32:38.221Z,30.60
2023-03-21T11:35:22.071Z,32.20
2023-03-21T11:38:01.591Z,28.30
2023-03-21T11:43:19.876Z,29.60
2023-03-21T11:46:05.759Z,26.70
2023-03-21T11:48:41.702Z,24.40
2023-03-21T11:51:11.667Z,25.80
2023-03-21T11:54:18.749Z,25.60
2023-03-21T11:56:53.831Z,26.30
2023-03-21T11:59:37.290Z,26.50
2023-03-21T12:02:36.004Z,24.20
2023-03-21T12:05:16.698Z,24.70
2023-03-21T12:08:08.900Z,23.90
2023-03-21T12:10:46.678Z,24.40
2023-03-21T12:13:45.807Z,24.70
2023-03-21T12:16:21.844Z,25.90
2023-03-21T12:19:21.607Z,25.50
2023-03-21T12:21:55.165Z,22.90
2023-03-21T12:24:45.457Z,24.00
2023-03-21T12:27:22.997Z,22.80
2023-03-21T12:30:29.052Z,27.20
2023-03-21T12:33:41.092Z,21.30
2023-03-21T12:36:23.703Z,21.40
2023-03-21T12:39:05.144Z,21.70
2023-03-21T12:42:04.398Z,22.90
2023-03-21T12:44:36.050Z,26.00
2023-03-21T12:47:10.720Z,24.10
2023-03-21T12:49:48.674Z,24.20
2023-03-21T12:52:26.806Z,21.60
2023-03-21T12:55:10.615Z,24.90
2023-03-21T12:57:47.777Z,25.40
2023-03-21T13:00:53.542Z,26.30
2023-03-21T13:03:27.680Z,27.40
2023-03-21T13:06:08.637Z,25.80
2023-03-21T13:09:03.384Z,28.80
2023-03-21T13:11:31.021Z,27.90
2023-03-21T13:14:25.825Z,23.60
2023-03-21T13:17:50.041Z,23.20
2023-03-21T13:20:36.200Z,24.60
2023-03-21T13:23:07.727Z,26.10
2023-03-21T13:25:49.235Z,25.70
2023-03-21T13:28:28.817Z,25.80
2023-03-21T13:31:19.575Z,27.40
2023-03-21T13:33:50.598Z,23.70
2023-03-21T13:36:25.923Z,29.60
2023-03-21T13:39:01.803Z,23.20
2023-03-21T13:41:39.020Z,22.70
2023-03-21T13:44:41.250Z,19.30
2023-03-21T13:47:35.396Z,24.00
2023-03-21T13:50:17.075Z,26.80
2023-03-21T13:53:12.474Z,25.70
2023-03-21T13:55:46.205Z,24.00
2023-03-21T13:58:34.898Z,24.00
2023-03-21T14:01:25.910Z,22.50
2023-03-21T14:04:06.673Z,21.00
2023-03-21T14:06:42.452Z,21.30
2023-03-21T14:09:38.070Z,21.20
2023-03-21T14:12:08.225Z,30.50
2023-03-21T14:14:41.353Z,20.70
2023-03-21T14:17:24.910Z,23.60
2023-03-21T14:20:11.761Z,25.70
2023-03-21T14:22:42.799Z,22.40
2023-03-21T14:25:13.840Z,20.40
2023-03-21T14:27:44.290Z,20.60
2023-03-21T14:30:11.978Z,24.60
2023-03-21T14:32:42.571Z,23.40
2023-03-21T14:35:10.229Z,20.50
2023-03-21T14:37:43.609Z,24.40
2023-03-21T14:40:25.093Z,23.30
2023-03-21T14:42:52.875Z,23.50
2023-03-21T14:48:01.122Z,27.40
2023-03-21T14:50:33.259Z,28.50
2023-03-21T14:53:00.500Z,23.00
2023-03-21T14:55:27.719Z,21.60
2023-03-21T14:57:59.258Z,24.00
2023-03-21T15:00:28.020Z,23.80
2023-03-21T15:02:55.324Z,26.10
2023-03-21T15:05:38.252Z,26.60
2023-03-21T15:08:08.431Z,29.50
2023-03-21T15:10:35.747Z,28.30
2023-03-21T15:13:20.582Z,33.20
2023-03-21T15:15:54.290Z,24.50
2023-03-21T15:18:35.347Z,25.20
2023-03-21T15:21:21.511Z,25.30
2023-03-21T15:24:15.299Z,34.20
2023-03-21T15:26:47.342Z,31.20
2023-03-21T15:29:17.769Z,27.50
2023-03-21T15:31:46.544Z,31.00
2023-03-21T15:34:28.008Z,35.50
2023-03-21T15:37:25.723Z,34.70
2023-03-21T15:39:55.205Z,36.10
2023-03-21T15:42:29.297Z,33.80
2023-03-21T15:45:02.078Z,32.10
2023-03-21T15:47:41.929Z,31.80
2023-03-21T15:50:32.553Z,31.80
2023-03-21T15:53:02.016Z,35.20
2023-03-21T15:55:35.636Z,30.80
2023-03-21T15:58:12.627Z,36.90
2023-03-21T16:00:43.486Z,30.30
2023-03-21T16:03:31.842Z,32.00
2023-03-21T16:06:14.898Z,34.80
2023-03-21T16:08:45.831Z,32.80
2023-03-21T16:11:20.411Z,34.10
2023-03-21T16:13:47.725Z,39.70
2023-03-21T16:16:26.298Z,40.50
2023-03-21T16:19:01.160Z,36.50
2023-03-21T16:21:30.096Z,35.60
2023-03-21T16:23:58.762Z,36.50
2023-03-21T16:26:31.510Z,37.80
2023-03-21T16:29:00.048Z,43.50
2023-03-21T16:31:32.429Z,46.80
2023-03-21T16:34:04.925Z,39.80
2023-03-21T16:36:36.214Z,39.50
2023-03-21T16:39:20.010Z,36.90
2023-03-21T16:41:51.782Z,35.50
2023-03-21T16:44:21.643Z,39.80
2023-03-21T16:46:50.102Z,67.20
2023-03-21T16:49:26.205Z,53.50
2023-03-21T16:52:01.616Z,46.70
2023-03-21T16:54:31.363Z,43.50
2023-03-21T16:57:02.665Z,42.50
2023-03-21T16:59:40.897Z,39.00
2023-03-21T17:02:37.056Z,39.80
2023-03-21T17:05:09.565Z,38.50
2023-03-21T17:07:38.466Z,46.40
2023-03-21T17:10:25.020Z,39.00
2023-03-21T17:12:56.342Z,40.90
2023-03-21T17:15:28.561Z,38.80
2023-03-21T17:17:57.534Z,41.60
2023-03-21T17:20:54.734Z,45.60
2023-03-21T17:23:22.596Z,65.40
2023-03-21T17:25:55.749Z,78.90
2023-03-21T17:28:24.637Z,84.40
2023-03-21T17:30:54.635Z,74.50
2023-03-21T17:33:23.829Z,69.40
2023-03-21T17:35:52.316Z,59.20
2023-03-21T17:38:23.850Z,63.80
2023-03-21T17:40:52.752Z,64.30
2023-03-21T17:43:24.557Z,67.80
2023-03-21T17:45:52.404Z,65.70
2023-03-21T17:48:21.405Z,69.80
2023-03-21T17:50:49.174Z,72.80
2023-03-21T17:53:19.384Z,79.80
2023-03-21T17:55:52.157Z,73.10
2023-03-21T18:00:49.266Z,76.90
2023-03-21T18:03:22.328Z,78.20
2023-03-21T18:05:50.832Z,83.70
2023-03-21T18:08:20.569Z,74.40
2023-03-21T18:10:53.450Z,68.20
2023-03-21T18:13:24.137Z,64.90
2023-03-21T18:15:59.794Z,74.30
2023-03-21T18:21:10.357Z,74.20
2023-03-21T18:23:41.142Z,77.10
2023-03-21T18:26:09.831Z,69.20
2023-03-21T18:29:00.297Z,62.00
2023-03-21T18:31:39.883Z,68.40
2023-03-21T18:34:09.353Z,77.30
2023-03-21T18:36:43.586Z,67.20
2023-03-21T18:39:13.112Z,67.00
2023-03-21T18:41:43.071Z,60.80
2023-03-21T18:44:16.688Z,55.70
2023-03-21T18:46:50.831Z,65.30
2023-03-21T18:50:05.497Z,56.50
2023-03-21T18:52:14.382Z,63.90
2023-03-21T18:54:43.843Z,69.70
2023-03-21T19:00:12.151Z,75.20
2023-03-21T19:02:45.562Z,69.00
2023-03-21T19:05:17.054Z,74.90
2023-03-21T19:07:46.068Z,61.90
2023-03-21T19:10:20.182Z,66.50
2023-03-21T19:12:54.410Z,70.00
2023-03-21T19:15:23.658Z,75.30
2023-03-21T19:20:50.196Z,73.00
2023-03-21T19:23:21.165Z,78.40
2023-03-21T19:26:37.025Z,74.80
2023-03-21T19:29:08.083Z,60.40
2023-03-21T19:31:37.404Z,50.80
2023-03-21T19:34:07.763Z,53.20
2023-03-21T19:36:37.275Z,49.60
2023-03-21T19:39:11.665Z,51.10
2023-03-21T19:41:40.738Z,49.10
2023-03-21T19:44:10.177Z,54.80
2023-03-21T19:46:37.591Z,55.70
2023-03-21T19:49:07.035Z,75.10
2023-03-21T19:51:43.624Z,53.20
2023-03-21T19:54:10.885Z,55.60
2023-03-21T19:56:47.102Z,58.40
2023-03-21T19:59:17.056Z,50.10
2023-03-21T20:01:56.972Z,45.90
2023-03-21T20:04:36.547Z,38.60
2023-03-21T20:07:24.669Z,39.70
2023-03-21T20:10:00.760Z,35.40
2023-03-21T20:12:37.858Z,38.00
2023-03-21T20:15:26.667Z,40.80
2023-03-21T20:18:23.409Z,40.80
2023-03-21T20:20:58.216Z,38.40
2023-03-21T20:23:29.862Z,55.80
2023-03-21T20:26:00.578Z,38.10
2023-03-21T20:28:28.964Z,44.80
2023-03-21T20:31:10.437Z,41.50
2023-03-21T20:33:41.250Z,46.40
2023-03-21T20:36:38.807Z,46.90
2023-03-21T20:39:01.112Z,38.10
2023-03-21T20:41:33.285Z,36.70
2023-03-21T20:46:53.567Z,50.80
2023-03-21T20:49:33.717Z,42.00
2023-03-21T20:54:54.102Z,37.50
2023-03-21T20:57:26.631Z,46.40
2023-03-21T20:59:59.159Z,46.70
2023-03-21T21:02:28.171Z,43.50
2023-03-21T21:05:24.567Z,52.00
2023-03-21T21:07:51.162Z,48.80
2023-03-21T21:10:22.375Z,50.10
2023-03-21T21:12:50.672Z,46.30
2023-03-21T21:15:19.689Z,47.40
2023-03-21T21:18:11.275Z,49.50
2023-03-21T21:20:42.552Z,49.00
2023-03-21T21:23:10.216Z,48.60
2023-03-21T21:25:41.955Z,49.20
2023-03-21T21:28:11.838Z,55.90
2023-03-21T21:30:47.357Z,51.60
2023-03-21T21:33:17.513Z,57.30
2023-03-21T21:35:47.641Z,49.60
2023-03-21T21:38:17.169Z,52.60
2023-03-21T21:41:08.027Z,54.70
2023-03-21T21:43:35.153Z,40.90
2023-03-21T21:46:03.313Z,43.00
2023-03-21T21:48:34.224Z,49.90
2023-03-21T21:51:03.351Z,52.40
2023-03-21T21:53:33.913Z,51.10
2023-03-21T21:56:03.192Z,59.80
2023-03-21T21:58:38.263Z,56.80
2023-03-21T22:01:08.928Z,57.20
2023-03-21T22:03:41.125Z,51.50
2023-03-21T22:06:10.334Z,54.20
2023-03-21T22:08:50.136Z,58.60
2023-03-21T22:11:22.175Z,51.70
2023-03-21T22:15:19.782Z,51.60
2023-03-21T22:17:51.020Z,46.00
2023-03-21T22:20:19.865Z,49.30
2023-03-21T22:22:50.650Z,50.10
2023-03-21T22:25:20.363Z,56.10
2023-03-21T22:27:52.574Z,54.70
2023-03-21T22:30:20.631Z,53.40
2023-03-21T22:33:08.907Z,47.90
2023-03-21T22:35:47.525Z,44.30
2023-03-21T22:38:25.030Z,41.70
2023-03-21T22:41:00.936Z,54.00
2023-03-21T22:43:33.989Z,69.60
2023-03-21T22:46:03.363Z,66.40
2023-03-21T22:48:35.984Z,61.80
2023-03-21T22:51:05.881Z,59.50
2023-03-21T22:53:41.757Z,64.50
2023-03-21T22:56:13.359Z,93.80
2023-03-21T22:58:45.864Z,88.70
2023-03-21T23:01:21.944Z,77.10
2023-03-21T23:03:51.896Z,94.00
2023-03-21T23:06:21.737Z,91.30
2023-03-21T23:08:50.028Z,101.40
2023-03-21T23:11:19.401Z,94.40
2023-03-21T23:13:51.588Z,94.40
2023-03-21T23:16:30.849Z,94.10
2023-03-21T23:18:58.622Z,97.70
2023-03-21T23:21:26.632Z,97.80
2023-03-21T23:23:56.228Z,95.00
2023-03-21T23:26:29.076Z,88.40
2023-03-21T23:29:01.510Z,89.70
2023-03-21T23:31:33.584Z,89.60
2023-03-21T23:34:00.725Z,91.40
2023-03-21T23:36:29.256Z,85.80
2023-03-21T23:39:03.912Z,74.40
2023-03-21T23:41:32.200Z,65.80
2023-03-21T23:44:01.959Z,67.50
2023-03-21T23:46:34.042Z,67.30
2023-03-21T23:49:04.178Z,63.50
2023-03-21T23:51:35.630Z,60.10
2023-03-21T23:54:04.958Z,65.20
2023-03-21T23:56:41.367Z,69.70
2023-03-21T23:59:20.163Z,66.60
